Time;durP1;ratioP1;P1;durP2;ratioP2;P2;SDS_P1;SDS_P2;PMS_P1;PMS_P2;Temp;Humidity;BMP_temperature;BMP_pressure;BME280_temperature;BME280_humidity;BME280_pressure;Samples;Min_cycle;Max_cycle;Signal;HPM_P1;HPM_P2
2022/10/28 00:01:18;;;;;;;42.53;17.00;;;14.50;99.90;;;;;;5017186;28;20053;-75
2022/10/28 00:03:48;;;;;;;43.92;17.63;;;14.50;99.90;;;;;;5033641;28;20046;-74
2022/10/28 00:06:21;;;;;;;45.22;17.90;;;14.50;99.90;;;;;;5019684;28;20222;-74
2022/10/28 00:08:49;;;;;;;51.22;18.60;;;14.40;99.90;;;;;;5053467;28;20368;-75
2022/10/28 00:11:20;;;;;;;50.38;18.75;;;14.40;99.90;;;;;;5054545;28;20041;-74
2022/10/28 00:13:51;;;;;;;41.45;16.50;;;14.40;99.90;;;;;;5054605;28;20049;-74
2022/10/28 00:16:22;;;;;;;56.75;19.38;;;14.40;99.90;;;;;;5052718;28;20041;-75
2022/10/28 00:18:52;;;;;;;52.90;19.20;;;14.40;99.90;;;;;;5054844;28;20045;-74
2022/10/28 00:21:25;;;;;;;62.20;20.33;;;14.40;99.90;;;;;;5054508;28;20041;-74
2022/10/28 00:23:54;;;;;;;60.00;21.13;;;14.30;99.90;;;;;;5052435;28;20049;-75
2022/10/28 00:26:22;;;;;;;;;;;14.30;99.90;;;;;;5054980;28;20048;-75
2022/10/28 00:28:52;;;;;;;44.53;15.30;;;14.30;99.90;;;;;;5053255;28;19928;-74
2022/10/28 00:31:22;;;;;;;58.67;20.40;;;14.40;99.90;;;;;;5054630;28;20045;-75
2022/10/28 00:33:50;;;;;;;56.97;21.27;;;14.30;99.90;;;;;;5054392;28;20045;-75
2022/10/28 00:36:24;;;;;;;57.53;21.05;;;14.30;99.90;;;;;;5053308;28;20159;-74
2022/10/28 00:38:53;;;;;;;57.85;20.83;;;14.30;99.90;;;;;;5054416;28;20041;-74
2022/10/28 00:41:24;;;;;;;49.70;19.33;;;14.40;99.90;;;;;;5054593;28;20068;-74
2022/10/28 00:44:00;;;;;;;55.70;20.58;;;14.30;99.90;;;;;;5053172;28;20475;-75
2022/10/28 00:46:44;;;;;;;64.85;22.55;;;14.30;99.90;;;;;;5054424;28;20055;-75
2022/10/28 00:49:20;;;;;;;65.82;21.02;;;14.30;99.90;;;;;;5052965;28;20064;-74
2022/10/28 00:51:52;;;;;;;55.28;22.35;;;14.30;99.90;;;;;;5054459;28;20049;-74
2022/10/28 00:54:21;;;;;;;52.05;21.23;;;14.30;99.90;;;;;;5054349;28;20037;-75
2022/10/28 00:56:52;;;;;;;60.40;21.48;;;14.20;99.90;;;;;;5052179;28;20057;-74
2022/10/28 00:59:25;;;;;;;65.30;21.80;;;14.20;99.90;;;;;;5054074;28;20375;-75
2022/10/28 01:01:53;;;;;;;65.03;23.92;;;14.30;99.90;;;;;;5053178;28;20052;-74
2022/10/28 01:04:21;;;;;;;62.28;23.05;;;14.20;99.90;;;;;;5054214;28;20494;-74
2022/10/28 01:06:50;;;;;;;58.97;22.80;;;14.20;99.90;;;;;;5038134;28;20054;-74
2022/10/28 01:09:18;;;;;;;63.28;22.60;;;14.20;99.90;;;;;;5032915;28;20046;-75
2022/10/28 01:12:15;;;;;;;68.82;22.98;;;14.20;99.90;;;;;;5034061;28;20372;-74
2022/10/28 01:15:16;;;;;;;64.57;22.98;;;14.30;99.90;;;;;;5020525;28;20068;-74
2022/10/28 01:18:21;;;;;;;63.63;22.27;;;14.20;99.90;;;;;;5037905;28;20057;-74
2022/10/28 01:21:15;;;;;;;75.60;23.63;;;14.30;99.90;;;;;;5037972;28;20050;-75
2022/10/28 01:24:13;;;;;;;59.35;22.33;;;14.30;99.90;;;;;;5036314;28;20048;-74
2022/10/28 01:26:59;;;;;;;64.25;25.27;;;14.30;99.90;;;;;;5020317;28;20045;-74
2022/10/28 01:29:32;;;;;;;76.90;25.73;;;14.20;99.90;;;;;;5036533;28;20104;-74
2022/10/28 01:32:30;;;;;;;61.20;23.48;;;14.30;99.90;;;;;;5037555;28;20045;-74
2022/10/28 01:35:15;;;;;;;69.28;24.77;;;14.20;99.90;;;;;;5036306;28;20360;-74
2022/10/28 01:38:08;;;;;;;74.60;24.63;;;14.20;99.90;;;;;;5020406;28;20056;-75
2022/10/28 01:40:54;;;;;;;69.88;23.02;;;14.20;99.90;;;;;;5037394;28;20468;-75
2022/10/28 01:43:31;;;;;;;60.45;25.42;;;14.20;99.90;;;;;;5035956;28;20357;-74
2022/10/28 01:46:05;;;;;;;70.30;24.40;;;14.20;99.90;;;;;;5037608;28;20041;-75
2022/10/28 01:48:47;;;;;;;73.80;26.13;;;14.20;99.90;;;;;;5036329;28;20049;-75
2022/10/28 01:51:18;;;;;;;74.85;25.38;;;14.20;99.90;;;;;;5037257;28;20038;-75
2022/10/28 01:53:51;;;;;;;66.35;26.27;;;14.20;99.90;;;;;;5019887;28;20048;-75
2022/10/28 01:56:25;;;;;;;68.90;24.92;;;14.20;99.90;;;;;;5002507;28;20053;-74
2022/10/28 01:58:57;;;;;;;69.55;25.15;;;14.20;99.90;;;;;;5037167;28;20045;-75
2022/10/28 02:01:28;;;;;;;72.40;25.58;;;14.20;99.90;;;;;;5019638;28;20476;-75
2022/10/28 02:03:56;;;;;;;74.07;25.77;;;14.20;99.90;;;;;;5036196;28;20037;-74
2022/10/28 02:06:28;;;;;;;72.38;25.75;;;14.10;99.90;;;;;;5036429;28;20053;-74
2022/10/28 02:09:05;;;;;;;74.28;27.63;;;14.10;99.90;;;;;;5036118;28;20057;-75
2022/10/28 02:11:59;;;;;;;86.82;26.85;;;14.10;99.90;;;;;;5036605;28;20041;-74
2022/10/28 02:14:42;;;;;;;71.43;25.42;;;14.10;99.90;;;;;;5018895;28;20388;-74
2022/10/28 02:17:36;;;;;;;75.20;26.38;;;14.10;99.90;;;;;;5035425;28;20046;-75
2022/10/28 02:20:07;;;;;;;69.57;26.80;;;14.00;99.90;;;;;;5036532;28;20037;-75
2022/10/28 02:22:50;;;;;;;79.53;29.40;;;14.00;99.90;;;;;;5035481;28;20069;-74
2022/10/28 02:25:26;;;;;;;84.97;30.27;;;14.00;99.90;;;;;;5036285;28;20372;-75
2022/10/28 02:28:11;;;;;;;78.68;27.02;;;14.00;99.90;;;;;;5036396;28;20066;-74
2022/10/28 02:31:08;;;;;;;84.28;31.30;;;14.00;99.90;;;;;;5036430;28;20049;-74
2022/10/28 02:33:38;;;;;;;94.28;30.35;;;13.90;99.90;;;;;;5031891;28;20046;-74
2022/10/28 02:36:13;;;;;;;81.93;28.70;;;13.90;99.90;;;;;;5035180;28;20468;-74
2022/10/28 02:38:49;;;;;;;91.97;31.33;;;13.90;99.90;;;;;;5019366;28;20056;-74
2022/10/28 02:41:25;;;;;;;96.38;33.42;;;13.90;99.90;;;;;;5018851;28;20045;-74
2022/10/28 02:43:56;;;;;;;90.95;33.15;;;13.90;99.90;;;;;;5001110;28;20061;-74
2022/10/28 02:46:25;;;;;;;109.10;36.03;;;14.00;99.90;;;;;;5019181;28;20056;-74
2022/10/28 02:48:58;;;;;;;97.80;32.00;;;14.00;99.90;;;;;;5034742;28;20464;-74
2022/10/28 02:51:37;;;;;;;84.60;31.48;;;14.10;99.90;;;;;;5036034;28;20372;-74
2022/10/28 02:54:11;;;;;;;90.45;32.75;;;14.10;99.90;;;;;;5018682;28;20049;-74
2022/10/28 02:56:45;;;;;;;83.88;32.47;;;14.20;99.90;;;;;;5034796;28;20041;-75
2022/10/28 02:59:13;;;;;;;80.28;30.02;;;14.20;99.90;;;;;;5036195;28;20049;-74
2022/10/28 03:01:40;;;;;;;74.23;31.33;;;14.20;99.90;;;;;;5034623;28;20048;-74
2022/10/28 03:04:08;;;;;;;78.07;30.80;;;14.10;99.90;;;;;;5018411;28;20278;-75
2022/10/28 03:06:35;;;;;;;102.40;37.33;;;14.30;99.90;;;;;;5035323;28;20052;-74
2022/10/28 03:09:03;;;;;;;97.43;35.63;;;14.20;99.90;;;;;;5017185;28;20057;-74
2022/10/28 03:11:30;;;;;;;102.75;35.25;;;14.40;99.90;;;;;;5035404;28;20053;-74
2022/10/28 03:13:58;;;;;;;91.78;32.05;;;14.40;99.90;;;;;;5035473;28;20049;-74
2022/10/28 03:16:25;;;;;;;101.88;34.42;;;14.40;99.90;;;;;;5034604;28;20052;-74
2022/10/28 03:18:53;;;;;;;100.60;35.05;;;14.40;99.90;;;;;;5035564;28;20037;-74
2022/10/28 03:21:21;;;;;;;104.10;35.88;;;14.40;99.90;;;;;;5035156;28;20045;-74
2022/10/28 03:23:49;;;;;;;101.60;35.67;;;14.40;99.90;;;;;;5016772;28;20061;-75
2022/10/28 03:26:16;;;;;;;94.57;34.93;;;14.50;99.90;;;;;;5035516;28;20283;-75
2022/10/28 03:28:43;;;;;;;98.53;33.33;;;14.50;99.90;;;;;;5034033;28;20614;-75
2022/10/28 03:31:11;;;;;;;96.18;35.92;;;14.60;99.90;;;;;;5035386;28;20052;-74
2022/10/28 03:33:39;;;;;;;93.13;34.47;;;14.60;99.90;;;;;;5034993;28;20049;-74
2022/10/28 03:36:06;;;;;;;84.28;33.22;;;14.70;99.90;;;;;;5033691;28;20057;-74
2022/10/28 03:38:34;;;;;;;90.28;31.02;;;14.70;99.90;;;;;;5035540;28;20053;-75
2022/10/28 03:41:01;;;;;;;85.72;30.85;;;14.70;99.90;;;;;;5035001;28;20053;-75
2022/10/28 03:43:29;;;;;;;89.03;32.03;;;14.70;99.90;;;;;;5000145;28;20092;-74
2022/10/28 03:45:56;;;;;;;83.28;32.35;;;14.70;99.90;;;;;;5035196;28;20056;-75
2022/10/28 03:48:24;;;;;;;86.68;30.92;;;14.70;99.90;;;;;;5000394;28;20056;-75
2022/10/28 03:50:52;;;;;;;96.30;33.45;;;14.80;99.90;;;;;;5034793;28;20041;-75
2022/10/28 03:53:21;;;;;;;90.63;33.67;;;14.70;99.90;;;;;;5034963;28;20046;-75
2022/10/28 03:55:57;;;;;;;101.32;33.53;;;14.70;99.90;;;;;;5033861;28;20056;-74
2022/10/28 03:58:25;;;;;;;102.13;33.08;;;14.70;99.90;;;;;;5034763;28;20046;-75
2022/10/28 04:00:54;;;;;;;89.70;32.92;;;14.80;99.90;;;;;;5034589;28;20037;-75
2022/10/28 04:03:23;;;;;;;83.60;29.90;;;14.80;99.90;;;;;;5000032;28;20467;-75
2022/10/28 04:05:50;;;;;;;79.22;29.27;;;14.80;99.90;;;;;;5034891;28;20060;-75
2022/10/28 04:08:19;;;;;;;84.25;29.60;;;14.80;99.90;;;;;;5033927;28;20050;-74
2022/10/28 04:10:47;;;;;;;81.45;28.00;;;14.70;99.90;;;;;;5034523;28;20045;-75
2022/10/28 04:13:15;;;;;;;76.28;26.40;;;14.80;99.90;;;;;;5034378;28;20038;-74
2022/10/28 04:15:43;;;;;;;77.35;26.95;;;14.80;99.90;;;;;;5016305;28;20042;-75
2022/10/28 04:18:11;;;;;;;79.95;26.33;;;14.80;99.90;;;;;;5034471;28;20052;-74
2022/10/28 04:20:38;;;;;;;65.40;24.30;;;14.90;99.90;;;;;;5017238;28;20052;-74
2022/10/28 04:23:06;;;;;;;67.97;24.63;;;14.80;99.90;;;;;;5033390;28;20053;-75
2022/10/28 04:25:33;;;;;;;75.78;26.35;;;14.90;99.90;;;;;;5017442;28;20046;-75
2022/10/28 04:28:01;;;;;;;68.53;24.85;;;14.90;99.90;;;;;;5017480;28;20053;-75
2022/10/28 04:30:28;;;;;;;83.07;25.63;;;15.00;99.90;;;;;;4999910;28;20103;-75
2022/10/28 04:32:55;;;;;;;84.80;25.95;;;14.90;99.90;;;;;;5016950;28;20579;-75
2022/10/28 04:35:23;;;;;;;72.18;26.70;;;14.90;99.90;;;;;;5032611;28;20050;-75
2022/10/28 04:37:51;;;;;;;74.68;25.50;;;14.90;99.90;;;;;;5034556;28;20046;-75
2022/10/28 04:40:19;;;;;;;69.18;26.23;;;14.90;99.90;;;;;;5034345;28;20045;-75
2022/10/28 04:42:49;;;;;;;63.97;25.80;;;15.00;99.90;;;;;;5033274;28;20085;-74
2022/10/28 04:45:16;;;;;;;92.70;25.98;;;15.00;99.90;;;;;;5034295;28;20046;-75
2022/10/28 04:47:44;;;;;;;76.60;26.15;;;15.00;99.90;;;;;;5017744;28;20060;-74
2022/10/28 04:50:11;;;;;;;72.72;26.23;;;15.00;99.90;;;;;;5037019;28;20045;-75
2022/10/28 04:52:39;;;;;;;76.05;25.92;;;15.00;99.90;;;;;;5038196;28;20230;-75
2022/10/28 04:55:06;;;;;;;75.50;25.92;;;15.10;99.90;;;;;;5019741;28;20076;-74
2022/10/28 04:57:34;;;;;;;72.28;24.55;;;15.10;99.90;;;;;;5037998;28;20045;-75
2022/10/28 05:00:02;;;;;;;76.75;26.92;;;15.10;99.90;;;;;;5020500;28;20392;-74
2022/10/28 05:02:29;;;;;;;;;;;15.10;99.90;;;;;;5037559;28;20057;-74
2022/10/28 05:05:02;;;;;;;71.10;25.15;;;15.20;99.90;;;;;;5038047;28;19932;-74
2022/10/28 05:07:29;;;;;;;69.93;24.50;;;15.20;99.90;;;;;;5037951;28;20049;-75
2022/10/28 05:09:57;;;;;;;64.35;24.33;;;15.20;99.90;;;;;;5036742;28;20056;-75
2022/10/28 05:12:24;;;;;;;63.58;22.73;;;15.20;99.90;;;;;;5020222;28;20384;-75
2022/10/28 05:14:52;;;;;;;61.63;22.70;;;15.20;99.90;;;;;;5036884;28;20045;-75
2022/10/28 05:17:19;;;;;;;64.30;23.70;;;15.20;99.90;;;;;;5020274;28;20049;-75
2022/10/28 05:19:47;;;;;;;58.83;21.88;;;15.20;99.90;;;;;;5037482;28;20045;-74
2022/10/28 05:22:14;;;;;;;54.83;20.67;;;15.20;99.90;;;;;;5036562;28;20054;-74
2022/10/28 05:24:42;;;;;;;54.75;20.15;;;15.20;99.90;;;;;;5020693;28;20463;-75
2022/10/28 05:27:11;;;;;;;56.95;19.73;;;15.20;99.90;;;;;;5037544;28;20049;-75
2022/10/28 05:29:38;;;;;;;55.88;19.45;;;15.20;99.90;;;;;;5019279;28;20374;-75
2022/10/28 05:32:08;;;;;;;57.87;17.70;;;15.20;99.90;;;;;;5037260;28;20049;-75
2022/10/28 05:34:35;;;;;;;44.63;16.38;;;15.30;99.90;;;;;;5037206;28;20289;-75
2022/10/28 05:37:03;;;;;;;49.17;16.13;;;15.30;99.90;;;;;;5036148;28;20364;-74
2022/10/28 05:39:30;;;;;;;48.47;15.68;;;15.30;99.90;;;;;;5037273;28;20606;-74
2022/10/28 05:41:58;;;;;;;46.80;15.35;;;15.30;99.90;;;;;;5036382;28;20042;-74
2022/10/28 05:44:25;;;;;;;43.30;14.85;;;15.30;99.90;;;;;;5037322;28;20050;-74
2022/10/28 05:46:54;;;;;;;41.85;14.00;;;15.40;99.90;;;;;;5019589;28;20308;-74
2022/10/28 05:49:21;;;;;;;;;;;15.40;99.90;;;;;;5036271;28;20046;-74
2022/10/28 05:51:49;;;;;;;39.30;13.55;;;15.40;99.90;;;;;;5035495;28;19921;-74
2022/10/28 05:54:16;;;;;;;45.28;13.75;;;15.50;99.90;;;;;;5012342;28;20361;-74
2022/10/28 05:56:44;;;;;;;40.88;13.30;;;15.40;99.90;;;;;;5016211;28;20457;-74
2022/10/28 05:59:11;;;;;;;43.97;13.60;;;15.40;99.90;;;;;;5016753;28;20485;-74
2022/10/28 06:01:39;;;;;;;36.55;11.93;;;15.40;99.90;;;;;;5015994;28;20058;-74
2022/10/28 06:04:06;;;;;;;40.72;12.50;;;15.40;99.90;;;;;;4999994;28;20057;-74
2022/10/28 06:06:34;;;;;;;39.60;12.25;;;15.40;99.90;;;;;;5016904;28;20042;-74
2022/10/28 06:09:02;;;;;;;45.15;12.60;;;15.40;99.90;;;;;;4998831;28;20050;-74
2022/10/28 06:11:29;;;;;;;41.75;13.13;;;15.40;99.90;;;;;;5016823;28;20069;-74
2022/10/28 06:13:57;;;;;;;40.15;12.52;;;15.40;99.90;;;;;;5016880;28;20057;-74
2022/10/28 06:16:24;;;;;;;41.92;12.80;;;15.30;99.90;;;;;;4998399;28;20050;-74
2022/10/28 06:18:51;;;;;;;39.20;12.68;;;15.30;99.90;;;;;;5016789;28;20042;-74
2022/10/28 06:21:19;;;;;;;39.70;12.77;;;15.10;99.90;;;;;;5016901;28;20050;-74
2022/10/28 06:23:47;;;;;;;50.00;12.68;;;15.20;99.90;;;;;;5015631;28;20064;-74
2022/10/28 06:26:14;;;;;;;37.90;12.68;;;15.10;99.90;;;;;;4999838;28;20061;-74
2022/10/28 06:28:42;;;;;;;42.97;12.93;;;15.10;99.90;;;;;;5016085;28;20053;-74
2022/10/28 06:31:09;;;;;;;41.53;13.70;;;15.10;99.90;;;;;;5016890;28;20049;-74
2022/10/28 06:33:37;;;;;;;41.50;12.68;;;15.10;99.90;;;;;;5016736;28;20038;-74
2022/10/28 06:36:05;;;;;;;31.33;12.85;;;15.10;99.90;;;;;;5015608;28;20057;-74
2022/10/28 06:38:32;;;;;;;43.85;13.52;;;15.10;99.90;;;;;;4999623;28;20034;-74
2022/10/28 06:40:59;;;;;;;38.60;12.60;;;15.10;99.90;;;;;;5017016;28;20057;-74
2022/10/28 06:43:27;;;;;;;42.05;12.85;;;15.10;99.90;;;;;;5015393;28;20049;-74
2022/10/28 06:45:56;;;;;;;43.42;12.40;;;15.10;99.90;;;;;;4983489;28;20053;-74
2022/10/28 06:48:23;;;;;;;37.25;11.70;;;15.10;99.90;;;;;;5014848;28;20049;-76
2022/10/28 06:50:54;;;;;;;47.28;12.10;;;15.10;99.90;;;;;;5023504;28;20080;-74
2022/10/28 06:53:23;;;;;;;39.63;11.82;;;15.10;99.90;;;;;;5035569;28;20048;-74
2022/10/28 06:55:55;;;;;;;35.55;11.00;;;15.20;99.90;;;;;;5017294;28;20353;-74
2022/10/28 06:58:23;;;;;;;42.60;11.27;;;15.20;99.90;;;;;;5035630;28;20468;-75
2022/10/28 07:00:52;;;;;;;37.15;10.27;;;15.20;99.90;;;;;;5018218;28;20060;-74
2022/10/28 07:03:19;;;;;;;;;;;15.20;99.90;;;;;;5017291;28;20049;-74
2022/10/28 07:05:50;;;;;;;40.97;11.35;;;15.20;99.90;;;;;;5035396;28;19928;-74
2022/10/28 07:08:17;;;;;;;36.20;9.88;;;15.30;99.90;;;;;;5017089;28;20049;-74
2022/10/28 07:10:55;;;;;;;39.75;10.00;;;15.30;99.90;;;;;;5017426;28;20049;-74
2022/10/28 07:13:24;;;;;;;38.78;10.20;;;15.30;99.90;;;;;;5035285;28;20041;-74
2022/10/28 07:15:53;;;;;;;44.45;10.55;;;15.40;99.90;;;;;;5034320;28;20046;-75
2022/10/28 07:18:21;;;;;;;40.60;9.68;;;15.40;99.90;;;;;;5017549;28;20049;-75
2022/10/28 07:20:49;;;;;;;40.88;9.75;;;15.40;99.90;;;;;;5034944;28;20068;-74
2022/10/28 07:23:17;;;;;;;42.88;10.07;;;15.50;99.90;;;;;;5033916;28;20052;-74
2022/10/28 07:25:54;;;;;;;40.47;10.23;;;15.50;99.90;;;;;;5017988;28;20052;-74
2022/10/28 07:28:23;;;;;;;39.33;9.82;;;15.60;99.90;;;;;;5033813;28;20068;-74
2022/10/28 07:30:51;;;;;;;36.15;9.57;;;15.60;99.90;;;;;;5034827;28;20052;-75
2022/10/28 07:33:19;;;;;;;33.45;9.25;;;15.70;99.90;;;;;;5016914;28;20045;-74
2022/10/28 07:35:47;;;;;;;45.72;9.13;;;15.70;99.90;;;;;;5033824;28;20052;-74
2022/10/28 07:38:14;;;;;;;44.92;9.32;;;15.70;99.90;;;;;;5033929;28;20049;-74
2022/10/28 07:40:42;;;;;;;40.72;9.25;;;15.80;99.90;;;;;;5034986;28;20061;-74
2022/10/28 07:43:10;;;;;;;40.97;9.65;;;15.80;99.90;;;;;;5016886;28;20045;-74
2022/10/28 07:45:38;;;;;;;38.67;8.95;;;15.80;99.90;;;;;;5000928;28;20034;-75
2022/10/28 07:48:06;;;;;;;42.25;9.70;;;15.80;99.90;;;;;;5003397;28;20049;-73
2022/10/28 07:50:33;;;;;;;47.50;9.45;;;15.80;99.90;;;;;;5014600;28;20045;-72
2022/10/28 07:53:01;;;;;;;36.00;9.15;;;15.90;99.90;;;;;;5014579;28;20046;-74
2022/10/28 07:55:28;;;;;;;42.15;8.93;;;16.00;99.90;;;;;;5012907;28;20050;-74
2022/10/28 07:57:56;;;;;;;34.10;9.50;;;16.00;99.90;;;;;;4998185;28;20050;-74
2022/10/28 08:00:23;;;;;;;35.53;9.93;;;16.10;99.90;;;;;;5015697;28;20365;-74
2022/10/28 08:02:51;;;;;;;37.35;10.15;;;16.00;99.90;;;;;;5014052;28;20053;-73
2022/10/28 08:05:19;;;;;;;40.58;9.43;;;16.00;99.90;;;;;;4997499;28;20060;-74
2022/10/28 08:07:46;;;;;;;41.15;11.00;;;16.00;99.90;;;;;;5015216;28;20060;-74
2022/10/28 08:10:14;;;;;;;;;;;16.00;99.90;;;;;;5014912;28;20045;-74
2022/10/28 08:12:41;;;;;;;54.13;13.63;;;16.00;99.90;;;;;;4997705;28;19921;-74
2022/10/28 08:15:09;;;;;;;45.55;14.48;;;16.00;99.90;;;;;;5013877;28;20053;-75
2022/10/28 08:17:37;;;;;;;45.30;14.73;;;16.00;99.90;;;;;;4997655;28;20046;-74
2022/10/28 08:20:05;;;;;;;48.75;10.40;;;16.00;99.90;;;;;;5014971;28;20360;-75
2022/10/28 08:22:33;;;;;;;;;;;16.20;99.90;;;;;;5016112;28;20050;-74
2022/10/28 08:25:00;;;;;;;32.58;10.15;;;16.30;99.90;;;;;;5001967;28;20374;-75
2022/10/28 08:27:28;;;;;;;33.97;9.00;;;16.40;99.90;;;;;;5018706;28;20049;-73
2022/10/28 08:29:55;;;;;;;44.10;8.80;;;16.40;99.90;;;;;;5000651;28;20061;-76
2022/10/28 08:32:22;;;;;;;38.83;9.23;;;16.50;99.90;;;;;;5018725;28;20291;-74
2022/10/28 08:34:50;;;;;;;37.13;8.90;;;16.60;99.90;;;;;;5018858;28;20042;-74
2022/10/28 08:37:18;;;;;;;37.47;9.32;;;16.70;99.90;;;;;;5018839;28;20045;-75
2022/10/28 08:39:45;;;;;;;45.03;9.57;;;16.80;99.90;;;;;;5018655;28;20042;-76
2022/10/28 08:42:31;;;;;;;40.20;11.20;;;16.90;99.90;;;;;;5000321;28;20042;-75
2022/10/28 08:45:21;;;;;;;44.10;11.93;;;17.10;99.90;;;;;;4984970;28;20053;-75
2022/10/28 08:48:08;;;;;;;40.08;11.25;;;17.20;99.90;;;;;;5001397;28;20480;-74
2022/10/28 08:51:13;;;;;;;35.05;9.88;;;17.30;99.90;;;;;;5017664;28;20042;-75
2022/10/28 08:53:46;;;;;;;33.30;8.60;;;17.50;99.90;;;;;;5018636;28;20045;-73
2022/10/28 08:56:24;;;;;;;35.33;8.38;;;17.50;99.90;;;;;;5000080;28;20493;-76
2022/10/28 08:58:55;;;;;;;33.17;7.40;;;17.60;99.90;;;;;;5000893;28;20045;-74
2022/10/28 09:01:43;;;;;;;37.22;7.80;;;17.70;99.90;;;;;;5001016;28;20058;-74
2022/10/28 09:04:22;;;;;;;41.78;7.90;;;17.70;99.90;;;;;;5018567;28;20408;-74
2022/10/28 09:06:50;;;;;;;33.25;8.57;;;17.70;99.90;;;;;;5018135;28;20056;-74
2022/10/28 09:09:21;;;;;;;35.47;8.93;;;17.70;99.90;;;;;;4999751;28;20380;-74
2022/10/28 09:12:05;;;;;;;42.95;9.18;;;17.70;99.90;;;;;;5001180;28;20488;-74
2022/10/28 09:15:08;;;;;;;36.63;9.68;;;17.70;99.90;;;;;;5018105;28;20049;-74
2022/10/28 09:17:51;;;;;;;45.00;10.07;;;17.60;99.90;;;;;;5000637;28;20046;-74
2022/10/28 09:20:41;;;;;;;41.92;10.90;;;17.60;99.90;;;;;;5001343;28;20050;-74
2022/10/28 09:23:41;;;;;;;38.08;9.77;;;17.70;99.90;;;;;;4999627;28;20065;-75
2022/10/28 09:26:23;;;;;;;41.67;9.13;;;17.80;99.90;;;;;;5016867;28;20050;-75
2022/10/28 09:29:18;;;;;;;30.92;6.10;;;17.80;99.90;;;;;;4999312;28;20046;-74
2022/10/28 09:32:08;;;;;;;26.15;5.22;;;17.90;99.90;;;;;;5016366;28;20066;-77
2022/10/28 09:34:53;;;;;;;23.65;4.80;;;18.00;99.90;;;;;;4999521;28;20461;-77
2022/10/28 09:37:37;;;;;;;21.65;4.75;;;18.00;99.90;;;;;;5017254;28;20056;-74
2022/10/28 09:40:27;;;;;;;22.63;4.63;;;18.10;99.90;;;;;;5017038;28;20060;-75
2022/10/28 09:43:15;;;;;;;23.88;4.47;;;18.20;99.90;;;;;;5015910;28;20060;-75
2022/10/28 09:45:47;;;;;;;23.13;4.00;;;18.30;99.90;;;;;;4999966;28;20054;-76
2022/10/28 09:48:20;;;;;;;18.13;3.85;;;18.30;99.90;;;;;;5016039;28;20473;-74
2022/10/28 09:50:51;;;;;;;18.75;4.28;;;18.40;99.90;;;;;;4999896;28;20042;-74
2022/10/28 09:53:40;;;;;;;20.05;3.67;;;18.40;99.90;;;;;;5016773;28;20045;-76
2022/10/28 09:56:08;;;;;;;16.33;3.33;;;18.40;99.90;;;;;;5015867;28;20376;-76
2022/10/28 09:58:39;;;;;;;16.27;3.22;;;18.40;99.90;;;;;;5016875;28;20060;-76
2022/10/28 10:01:07;;;;;;;11.38;2.60;;;18.30;99.90;;;;;;5016802;28;20365;-76
2022/10/28 10:03:35;;;;;;;12.05;2.58;;;18.30;99.90;;;;;;5015727;28;20065;-76
2022/10/28 10:06:12;;;;;;;16.90;2.92;;;18.30;99.90;;;;;;4998519;28;20052;-76
2022/10/28 10:08:41;;;;;;;10.43;2.55;;;18.30;99.90;;;;;;5034265;28;20057;-75
2022/10/28 10:11:18;;;;;;;12.40;2.22;;;18.30;99.90;;;;;;5034920;28;20056;-74
2022/10/28 10:13:50;;;;;;;12.25;2.55;;;18.30;99.90;;;;;;5036329;28;20049;-76
2022/10/28 10:16:45;;;;;;;11.68;2.15;;;18.30;99.90;;;;;;5035210;28;20054;-75
2022/10/28 10:19:13;;;;;;;11.68;1.60;;;18.30;99.90;;;;;;5019123;28;20049;-77
2022/10/28 10:21:49;;;;;;;14.75;1.98;;;18.30;99.90;;;;;;5034429;28;20049;-76
2022/10/28 10:24:43;;;;;;;10.18;1.70;;;18.30;99.90;;;;;;5035830;28;20455;-76
2022/10/28 10:27:15;;;;;;;9.05;1.98;;;18.30;99.90;;;;;;5018851;28;20061;-75
2022/10/28 10:29:46;;;;;;;11.07;1.85;;;18.20;99.90;;;;;;5035065;28;20053;-76
2022/10/28 10:32:15;;;;;;;11.52;1.88;;;18.20;99.90;;;;;;5018686;28;20483;-76
2022/10/28 10:34:58;;;;;;;10.68;2.00;;;18.10;99.90;;;;;;5035174;28;20472;-74
2022/10/28 10:37:27;;;;;;;9.55;1.88;;;18.10;99.90;;;;;;5036159;28;20041;-75
2022/10/28 10:40:09;;;;;;;11.00;2.20;;;18.10;99.90;;;;;;5036206;28;20503;-76
2022/10/28 10:42:37;;;;;;;14.02;2.58;;;18.00;99.90;;;;;;5035025;28;20372;-75
2022/10/28 10:45:26;;;;;;;12.27;2.13;;;17.90;99.90;;;;;;5034661;28;20049;-74
2022/10/28 10:48:12;;;;;;;12.48;1.98;;;17.90;99.90;;;;;;5036045;28;20053;-75
2022/10/28 10:50:45;;;;;;;13.23;2.53;;;17.90;99.90;;;;;;5036122;28;20041;-74
2022/10/28 10:53:28;;;;;;;14.98;2.03;;;17.80;99.90;;;;;;5035097;28;20384;-74
2022/10/28 10:56:04;;;;;;;11.52;2.10;;;17.80;99.90;;;;;;5034641;28;20049;-75
2022/10/28 10:58:50;;;;;;;15.15;2.25;;;17.90;99.90;;;;;;5035956;28;20045;-75
2022/10/28 11:01:26;;;;;;;14.05;2.30;;;18.00;99.90;;;;;;5035125;28;20345;-74
2022/10/28 11:03:58;;;;;;;13.52;2.15;;;18.10;99.90;;;;;;5033588;28;20060;-76
2022/10/28 11:06:29;;;;;;;14.10;2.70;;;18.20;99.90;;;;;;5023341;28;20054;-75
2022/10/28 11:09:03;;;;;;;13.32;2.40;;;18.30;99.90;;;;;;4997643;28;20049;-75
2022/10/28 11:11:36;;;;;;;13.73;2.38;;;18.40;99.90;;;;;;5015836;28;20049;-75
2022/10/28 11:14:08;;;;;;;9.52;2.00;;;18.40;99.90;;;;;;4998704;28;20117;-74
2022/10/28 11:16:56;;;;;;;12.38;2.42;;;18.50;99.90;;;;;;5014703;28;20041;-75
2022/10/28 11:19:27;;;;;;;12.20;2.13;;;18.50;99.90;;;;;;4998710;28;20045;-75
2022/10/28 11:22:02;;;;;;;15.85;2.50;;;18.50;99.90;;;;;;4998338;28;20041;-75
2022/10/28 11:25:02;;;;;;;14.80;2.53;;;18.50;99.90;;;;;;4998678;28;20065;-74
2022/10/28 11:27:56;;;;;;;10.65;2.35;;;18.40;99.90;;;;;;4998758;28;20053;-74
2022/10/28 11:30:48;;;;;;;12.68;2.08;;;18.40;99.90;;;;;;5014355;28;20057;-75
2022/10/28 11:33:27;;;;;;;14.80;2.65;;;18.40;99.90;;;;;;5015501;28;20053;-75
2022/10/28 11:36:18;;;;;;;12.68;2.20;;;18.30;99.90;;;;;;5014548;28;20046;-75
2022/10/28 11:39:21;;;;;;;13.20;2.20;;;18.20;99.90;;;;;;4998197;28;20049;-75
2022/10/28 11:41:57;;;;;;;12.82;2.15;;;18.20;99.90;;;;;;4916098;29;20361;-76
2022/10/28 11:44:52;;;;;;;14.55;2.33;;;18.20;99.90;;;;;;5002288;28;20068;-74
2022/10/28 11:47:47;;;;;;;12.52;2.08;;;18.20;99.90;;;;;;4998051;28;20358;-75
2022/10/28 11:50:20;;;;;;;15.77;2.83;;;18.20;99.90;;;;;;4996861;28;20061;-74
2022/10/28 11:53:16;;;;;;;14.73;2.47;;;18.20;99.90;;;;;;4997899;28;20053;-74
2022/10/28 11:56:01;;;;;;;14.80;2.55;;;18.30;99.90;;;;;;5013953;28;20057;-75
2022/10/28 11:58:47;;;;;;;14.45;2.60;;;18.30;99.90;;;;;;5015267;28;20467;-75
2022/10/28 12:01:39;;;;;;;12.73;2.33;;;18.40;99.90;;;;;;4998061;28;20081;-76
2022/10/28 12:04:10;;;;;;;11.65;2.45;;;18.40;99.90;;;;;;5015111;28;20057;-75
2022/10/28 12:07:05;;;;;;;16.45;2.75;;;18.30;99.90;;;;;;5014798;28;20053;-75
2022/10/28 12:09:45;;;;;;;14.63;2.85;;;18.20;99.90;;;;;;5013843;28;20073;-74
2022/10/28 12:12:29;;;;;;;19.05;2.80;;;18.10;99.90;;;;;;4981412;28;20056;-75
2022/10/28 12:15:14;;;;;;;17.52;3.15;;;18.00;99.90;;;;;;5013489;28;20574;-76
2022/10/28 12:17:49;;;;;;;17.40;4.15;;;18.00;99.90;;;;;;4997577;28;20038;-76
2022/10/28 12:20:32;;;;;;;19.63;4.60;;;18.00;99.90;;;;;;4981243;28;20054;-74
2022/10/28 12:23:07;;;;;;;20.30;2.92;;;18.00;99.90;;;;;;5013610;28;20476;-74
2022/10/28 12:25:38;;;;;;;13.68;3.15;;;17.90;99.90;;;;;;4997457;28;20061;-74
2022/10/28 12:28:20;;;;;;;20.20;3.00;;;17.80;99.90;;;;;;4997311;28;20049;-75
2022/10/28 12:30:51;;;;;;;18.13;2.92;;;17.80;99.90;;;;;;4981065;28;20042;-75
2022/10/28 12:33:33;;;;;;;19.60;3.17;;;17.70;99.90;;;;;;4997146;28;20046;-76
2022/10/28 12:36:04;;;;;;;17.23;2.97;;;17.70;99.90;;;;;;5013246;28;20380;-74
2022/10/28 12:38:41;;;;;;;13.65;2.75;;;17.70;99.90;;;;;;5014357;28;20045;-76
2022/10/28 12:41:25;;;;;;;16.23;2.95;;;17.70;99.90;;;;;;5014431;28;20047;-75
2022/10/28 12:44:01;;;;;;;14.40;2.65;;;17.70;99.90;;;;;;5012917;28;20046;-74
2022/10/28 12:46:51;;;;;;;16.67;2.42;;;17.70;99.90;;;;;;5014229;28;20053;-76
2022/10/28 12:49:49;;;;;;;14.82;2.60;;;17.70;99.90;;;;;;4996043;28;20069;-75
2022/10/28 12:52:37;;;;;;;19.40;2.60;;;17.80;99.90;;;;;;4997090;28;20049;-76
2022/10/28 12:55:19;;;;;;;21.38;3.05;;;17.80;99.90;;;;;;5013244;28;20372;-75
2022/10/28 12:58:11;;;;;;;17.48;3.20;;;17.90;99.90;;;;;;4997083;28;20369;-75
2022/10/28 13:00:45;;;;;;;19.17;2.85;;;18.00;99.90;;;;;;5014061;28;20057;-75
2022/10/28 13:03:14;;;;;;;15.30;3.00;;;18.20;99.90;;;;;;5013330;28;20385;-76
2022/10/28 13:06:05;;;;;;;18.08;3.20;;;18.30;99.90;;;;;;5015254;28;20058;-77
2022/10/28 13:09:10;;;;;;;14.07;3.30;;;18.30;99.90;;;;;;5013456;28;20448;-76